Terminal Aerodrome Forecast
Issued by NWS

Home | Current Version | Previous Version | Text Only | Print | Product List | Glossary On
Versions: 1 2 3 4 5 6 7 8 9 10 11 12 13 14 15 16 17 18 19 20
000
FTUS42 KGSP 272334
TAFGMU
TAF
KGMU 272334Z 2800/2824 20005KT P6SM VCSH SCT020 BKN050
      TEMPO 2801/2802 4SM -SHRA OVC020
     FM280200 21005KT P6SM BKN045
     FM280500 VRB02KT 4SM BR SCT008
     FM280900 20003KT 2SM BR BKN006
     FM281400 20005KT P6SM SCT015
     FM281700 21008KT P6SM SCT040=

USA.gov is the U.S. government's official web portal to all federal, state and local government web resources and services.